sensor_id;sensor_type;location;lat;lon;timestamp;P1;durP1;ratioP1;P2;durP2;ratioP2
3811;SDS011;1921;49.368;11.068;2023-07-08T00:00:45;70.43;;;52.10;;
3811;SDS011;1921;49.368;11.068;2023-07-08T00:03:15;65.83;;;52.43;;
3811;SDS011;1921;49.368;11.068;2023-07-08T00:05:41;65.83;;;52.47;;
3811;SDS011;1921;49.368;11.068;2023-07-08T00:08:08;70.33;;;52.90;;
3811;SDS011;1921;49.368;11.068;2023-07-08T00:10:38;67.17;;;52.33;;
3811;SDS011;1921;49.368;11.068;2023-07-08T00:13:04;66.00;;;52.40;;
3811;SDS011;1921;49.368;11.068;2023-07-08T00:15:30;66.67;;;52.40;;
3811;SDS011;1921;49.368;11.068;2023-07-08T00:17:57;67.93;;;52.57;;
3811;SDS011;1921;49.368;11.068;2023-07-08T00:20:38;67.30;;;52.60;;
3811;SDS011;1921;49.368;11.068;2023-07-08T00:23:12;68.90;;;52.70;;
3811;SDS011;1921;49.368;11.068;2023-07-08T00:25:38;66.03;;;52.57;;
3811;SDS011;1921;49.368;11.068;2023-07-08T00:28:12;68.33;;;52.80;;
3811;SDS011;1921;49.368;11.068;2023-07-08T00:30:42;67.73;;;52.57;;
3811;SDS011;1921;49.368;11.068;2023-07-08T00:33:08;66.53;;;52.77;;
3811;SDS011;1921;49.368;11.068;2023-07-08T00:35:35;68.10;;;52.80;;
3811;SDS011;1921;49.368;11.068;2023-07-08T00:38:22;66.97;;;52.87;;
3811;SDS011;1921;49.368;11.068;2023-07-08T00:43:48;66.07;;;52.73;;
3811;SDS011;1921;49.368;11.068;2023-07-08T00:48:53;67.43;;;52.53;;
3811;SDS011;1921;49.368;11.068;2023-07-08T00:51:37;65.43;;;52.00;;
3811;SDS011;1921;49.368;11.068;2023-07-08T00:54:25;66.30;;;52.60;;
3811;SDS011;1921;49.368;11.068;2023-07-08T00:59:28;65.60;;;51.77;;
3811;SDS011;1921;49.368;11.068;2023-07-08T01:02:05;67.23;;;52.20;;
3811;SDS011;1921;49.368;11.068;2023-07-08T01:04:39;68.00;;;52.63;;
3811;SDS011;1921;49.368;11.068;2023-07-08T01:07:29;65.60;;;51.80;;
3811;SDS011;1921;49.368;11.068;2023-07-08T01:10:00;65.60;;;52.80;;
3811;SDS011;1921;49.368;11.068;2023-07-08T01:12:31;66.20;;;52.50;;
3811;SDS011;1921;49.368;11.068;2023-07-08T01:15:02;68.77;;;53.17;;
3811;SDS011;1921;49.368;11.068;2023-07-08T01:17:29;67.00;;;52.77;;
3811;SDS011;1921;49.368;11.068;2023-07-08T01:19:59;68.70;;;52.40;;
3811;SDS011;1921;49.368;11.068;2023-07-08T01:22:25;66.00;;;52.53;;
3811;SDS011;1921;49.368;11.068;2023-07-08T01:24:57;66.03;;;52.73;;
3811;SDS011;1921;49.368;11.068;2023-07-08T01:27:28;67.70;;;52.73;;
3811;SDS011;1921;49.368;11.068;2023-07-08T01:29:57;69.00;;;52.77;;
3811;SDS011;1921;49.368;11.068;2023-07-08T01:32:24;67.10;;;52.20;;
3811;SDS011;1921;49.368;11.068;2023-07-08T01:34:51;65.87;;;52.03;;
3811;SDS011;1921;49.368;11.068;2023-07-08T01:37:32;70.00;;;52.13;;
3811;SDS011;1921;49.368;11.068;2023-07-08T01:42:46;66.27;;;52.60;;
3811;SDS011;1921;49.368;11.068;2023-07-08T01:45:12;65.40;;;52.00;;
3811;SDS011;1921;49.368;11.068;2023-07-08T01:47:42;66.50;;;52.70;;
3811;SDS011;1921;49.368;11.068;2023-07-08T01:50:31;63.77;;;51.20;;
3811;SDS011;1921;49.368;11.068;2023-07-08T01:53:00;65.17;;;51.97;;
3811;SDS011;1921;49.368;11.068;2023-07-08T01:55:33;72.00;;;52.47;;
3811;SDS011;1921;49.368;11.068;2023-07-08T01:57:59;65.87;;;52.30;;
3811;SDS011;1921;49.368;11.068;2023-07-08T02:00:25;66.90;;;52.50;;
3811;SDS011;1921;49.368;11.068;2023-07-08T02:02:50;70.97;;;52.30;;
3811;SDS011;1921;49.368;11.068;2023-07-08T02:05:16;66.23;;;52.10;;
3811;SDS011;1921;49.368;11.068;2023-07-08T02:07:42;68.20;;;52.00;;
3811;SDS011;1921;49.368;11.068;2023-07-08T02:10:08;66.90;;;52.67;;
3811;SDS011;1921;49.368;11.068;2023-07-08T02:12:34;66.50;;;52.87;;
3811;SDS011;1921;49.368;11.068;2023-07-08T02:15:00;66.63;;;52.40;;
3811;SDS011;1921;49.368;11.068;2023-07-08T02:17:27;66.00;;;52.57;;
3811;SDS011;1921;49.368;11.068;2023-07-08T02:19:55;64.90;;;51.70;;
3811;SDS011;1921;49.368;11.068;2023-07-08T02:22:21;65.27;;;52.10;;
3811;SDS011;1921;49.368;11.068;2023-07-08T02:24:47;72.37;;;53.73;;
3811;SDS011;1921;49.368;11.068;2023-07-08T02:27:13;69.40;;;52.33;;
3811;SDS011;1921;49.368;11.068;2023-07-08T02:29:40;67.50;;;52.40;;
3811;SDS011;1921;49.368;11.068;2023-07-08T02:32:06;65.20;;;51.43;;
3811;SDS011;1921;49.368;11.068;2023-07-08T02:34:31;66.67;;;52.50;;
3811;SDS011;1921;49.368;11.068;2023-07-08T02:36:57;69.27;;;52.70;;
3811;SDS011;1921;49.368;11.068;2023-07-08T02:39:24;67.63;;;53.10;;
3811;SDS011;1921;49.368;11.068;2023-07-08T02:41:49;66.00;;;52.20;;
3811;SDS011;1921;49.368;11.068;2023-07-08T02:44:15;66.40;;;52.23;;
3811;SDS011;1921;49.368;11.068;2023-07-08T02:46:41;69.40;;;52.57;;
3811;SDS011;1921;49.368;11.068;2023-07-08T02:49:06;66.67;;;52.30;;
3811;SDS011;1921;49.368;11.068;2023-07-08T02:51:32;67.53;;;52.43;;
3811;SDS011;1921;49.368;11.068;2023-07-08T02:53:58;69.00;;;53.20;;
3811;SDS011;1921;49.368;11.068;2023-07-08T02:56:24;66.30;;;52.23;;
3811;SDS011;1921;49.368;11.068;2023-07-08T02:58:51;65.37;;;52.37;;
3811;SDS011;1921;49.368;11.068;2023-07-08T03:01:18;73.70;;;52.47;;
3811;SDS011;1921;49.368;11.068;2023-07-08T03:03:44;68.43;;;52.67;;
3811;SDS011;1921;49.368;11.068;2023-07-08T03:06:11;66.73;;;52.50;;
3811;SDS011;1921;49.368;11.068;2023-07-08T03:08:37;71.30;;;52.90;;
3811;SDS011;1921;49.368;11.068;2023-07-08T03:11:04;68.27;;;53.27;;
3811;SDS011;1921;49.368;11.068;2023-07-08T03:13:32;66.10;;;52.60;;
3811;SDS011;1921;49.368;11.068;2023-07-08T03:15:59;66.03;;;52.20;;
3811;SDS011;1921;49.368;11.068;2023-07-08T03:18:27;67.00;;;52.23;;
3811;SDS011;1921;49.368;11.068;2023-07-08T03:20:55;67.77;;;52.43;;
3811;SDS011;1921;49.368;11.068;2023-07-08T03:23:22;70.60;;;52.47;;
3811;SDS011;1921;49.368;11.068;2023-07-08T03:25:50;69.33;;;52.57;;
3811;SDS011;1921;49.368;11.068;2023-07-08T03:28:16;65.90;;;51.97;;
3811;SDS011;1921;49.368;11.068;2023-07-08T03:30:42;66.23;;;51.57;;
3811;SDS011;1921;49.368;11.068;2023-07-08T03:33:09;67.63;;;53.17;;
3811;SDS011;1921;49.368;11.068;2023-07-08T03:35:37;67.70;;;52.70;;
3811;SDS011;1921;49.368;11.068;2023-07-08T03:38:05;68.57;;;52.07;;
3811;SDS011;1921;49.368;11.068;2023-07-08T03:40:31;68.40;;;52.57;;
3811;SDS011;1921;49.368;11.068;2023-07-08T03:42:57;68.90;;;52.80;;
3811;SDS011;1921;49.368;11.068;2023-07-08T03:45:23;68.63;;;53.40;;
3811;SDS011;1921;49.368;11.068;2023-07-08T03:47:50;69.40;;;52.60;;
3811;SDS011;1921;49.368;11.068;2023-07-08T03:50:23;72.03;;;53.10;;
3811;SDS011;1921;49.368;11.068;2023-07-08T03:52:51;69.27;;;53.00;;
3811;SDS011;1921;49.368;11.068;2023-07-08T03:55:19;70.50;;;53.13;;
3811;SDS011;1921;49.368;11.068;2023-07-08T03:57:45;68.20;;;52.97;;
3811;SDS011;1921;49.368;11.068;2023-07-08T04:00:12;69.70;;;53.13;;
3811;SDS011;1921;49.368;11.068;2023-07-08T04:02:39;67.87;;;52.47;;
3811;SDS011;1921;49.368;11.068;2023-07-08T04:05:12;72.40;;;53.50;;
3811;SDS011;1921;49.368;11.068;2023-07-08T04:07:40;71.17;;;53.63;;
3811;SDS011;1921;49.368;11.068;2023-07-08T04:10:06;70.20;;;54.03;;
3811;SDS011;1921;49.368;11.068;2023-07-08T04:12:33;70.30;;;53.57;;
3811;SDS011;1921;49.368;11.068;2023-07-08T04:14:58;74.40;;;55.57;;
3811;SDS011;1921;49.368;11.068;2023-07-08T04:17:24;73.90;;;55.17;;
3811;SDS011;1921;49.368;11.068;2023-07-08T04:19:50;73.90;;;55.17;;
3811;SDS011;1921;49.368;11.068;2023-07-08T04:22:16;73.97;;;55.50;;
3811;SDS011;1921;49.368;11.068;2023-07-08T04:24:42;74.60;;;55.40;;
3811;SDS011;1921;49.368;11.068;2023-07-08T04:27:12;74.13;;;55.73;;
3811;SDS011;1921;49.368;11.068;2023-07-08T04:29:40;77.80;;;56.77;;
3811;SDS011;1921;49.368;11.068;2023-07-08T04:32:06;73.30;;;55.73;;
3811;SDS011;1921;49.368;11.068;2023-07-08T04:34:32;74.20;;;56.00;;
3811;SDS011;1921;49.368;11.068;2023-07-08T04:36:58;76.70;;;56.87;;
3811;SDS011;1921;49.368;11.068;2023-07-08T04:39:24;75.50;;;57.07;;
3811;SDS011;1921;49.368;11.068;2023-07-08T04:41:49;76.90;;;57.30;;
3811;SDS011;1921;49.368;11.068;2023-07-08T04:44:16;78.93;;;57.60;;
3811;SDS011;1921;49.368;11.068;2023-07-08T04:46:50;78.10;;;57.70;;
3811;SDS011;1921;49.368;11.068;2023-07-08T04:49:19;77.30;;;57.77;;
3811;SDS011;1921;49.368;11.068;2023-07-08T04:51:45;76.20;;;57.00;;
3811;SDS011;1921;49.368;11.068;2023-07-08T04:54:12;75.90;;;57.50;;
3811;SDS011;1921;49.368;11.068;2023-07-08T04:59:11;77.17;;;57.40;;
3811;SDS011;1921;49.368;11.068;2023-07-08T05:01:39;74.73;;;56.87;;
3811;SDS011;1921;49.368;11.068;2023-07-08T05:04:06;76.27;;;57.30;;
3811;SDS011;1921;49.368;11.068;2023-07-08T05:06:33;77.83;;;58.57;;
3811;SDS011;1921;49.368;11.068;2023-07-08T05:08:59;76.77;;;57.07;;
3811;SDS011;1921;49.368;11.068;2023-07-08T05:11:27;81.33;;;58.47;;
3811;SDS011;1921;49.368;11.068;2023-07-08T05:13:53;77.60;;;58.43;;
3811;SDS011;1921;49.368;11.068;2023-07-08T05:16:19;78.07;;;58.43;;
3811;SDS011;1921;49.368;11.068;2023-07-08T05:18:45;79.10;;;58.80;;
3811;SDS011;1921;49.368;11.068;2023-07-08T05:21:12;77.53;;;58.10;;
3811;SDS011;1921;49.368;11.068;2023-07-08T05:23:37;77.93;;;58.20;;
3811;SDS011;1921;49.368;11.068;2023-07-08T05:26:04;78.53;;;58.63;;
3811;SDS011;1921;49.368;11.068;2023-07-08T05:28:32;77.10;;;58.10;;
3811;SDS011;1921;49.368;11.068;2023-07-08T05:30:59;77.17;;;57.83;;
3811;SDS011;1921;49.368;11.068;2023-07-08T05:33:25;79.83;;;58.30;;
3811;SDS011;1921;49.368;11.068;2023-07-08T05:35:53;80.70;;;58.90;;
3811;SDS011;1921;49.368;11.068;2023-07-08T05:38:19;79.47;;;58.47;;
3811;SDS011;1921;49.368;11.068;2023-07-08T05:40:49;77.40;;;59.20;;
3811;SDS011;1921;49.368;11.068;2023-07-08T05:43:18;79.10;;;59.23;;
3811;SDS011;1921;49.368;11.068;2023-07-08T05:45:44;79.57;;;59.10;;
3811;SDS011;1921;49.368;11.068;2023-07-08T05:48:10;80.30;;;59.67;;
3811;SDS011;1921;49.368;11.068;2023-07-08T05:50:36;80.30;;;59.20;;
3811;SDS011;1921;49.368;11.068;2023-07-08T05:53:02;81.43;;;58.87;;
3811;SDS011;1921;49.368;11.068;2023-07-08T05:55:28;82.07;;;59.53;;
3811;SDS011;1921;49.368;11.068;2023-07-08T05:57:54;81.17;;;59.63;;
3811;SDS011;1921;49.368;11.068;2023-07-08T06:00:19;78.80;;;58.93;;
3811;SDS011;1921;49.368;11.068;2023-07-08T06:02:45;78.60;;;59.00;;
3811;SDS011;1921;49.368;11.068;2023-07-08T06:05:11;78.53;;;59.27;;
3811;SDS011;1921;49.368;11.068;2023-07-08T06:07:37;80.20;;;59.27;;
3811;SDS011;1921;49.368;11.068;2023-07-08T06:10:02;80.00;;;58.50;;
3811;SDS011;1921;49.368;11.068;2023-07-08T06:12:29;84.33;;;59.40;;
3811;SDS011;1921;49.368;11.068;2023-07-08T06:14:55;78.13;;;58.10;;
3811;SDS011;1921;49.368;11.068;2023-07-08T06:17:21;76.97;;;57.80;;
3811;SDS011;1921;49.368;11.068;2023-07-08T06:19:47;77.00;;;58.43;;
3811;SDS011;1921;49.368;11.068;2023-07-08T06:22:13;77.20;;;58.53;;
3811;SDS011;1921;49.368;11.068;2023-07-08T06:24:39;78.47;;;58.57;;
3811;SDS011;1921;49.368;11.068;2023-07-08T06:27:05;77.67;;;58.57;;
3811;SDS011;1921;49.368;11.068;2023-07-08T06:29:32;79.50;;;59.10;;
3811;SDS011;1921;49.368;11.068;2023-07-08T06:31:59;79.50;;;58.63;;
3811;SDS011;1921;49.368;11.068;2023-07-08T06:34:26;77.90;;;58.33;;
3811;SDS011;1921;49.368;11.068;2023-07-08T06:36:52;79.13;;;58.07;;
3811;SDS011;1921;49.368;11.068;2023-07-08T06:39:18;77.73;;;57.90;;
3811;SDS011;1921;49.368;11.068;2023-07-08T06:41:44;82.10;;;58.33;;
3811;SDS011;1921;49.368;11.068;2023-07-08T06:44:11;79.40;;;58.20;;
3811;SDS011;1921;49.368;11.068;2023-07-08T06:46:37;76.53;;;57.80;;
3811;SDS011;1921;49.368;11.068;2023-07-08T06:49:03;77.70;;;58.00;;
3811;SDS011;1921;49.368;11.068;2023-07-08T06:51:33;77.87;;;57.13;;
3811;SDS011;1921;49.368;11.068;2023-07-08T06:53:59;77.87;;;57.63;;
3811;SDS011;1921;49.368;11.068;2023-07-08T06:56:29;79.33;;;58.53;;
3811;SDS011;1921;49.368;11.068;2023-07-08T06:58:56;82.60;;;58.90;;
3811;SDS011;1921;49.368;11.068;2023-07-08T07:01:21;75.00;;;57.00;;
3811;SDS011;1921;49.368;11.068;2023-07-08T07:03:47;76.43;;;57.50;;
3811;SDS011;1921;49.368;11.068;2023-07-08T07:06:13;78.33;;;58.00;;
3811;SDS011;1921;49.368;11.068;2023-07-08T07:08:39;77.00;;;58.13;;
3811;SDS011;1921;49.368;11.068;2023-07-08T07:11:04;80.73;;;58.17;;
3811;SDS011;1921;49.368;11.068;2023-07-08T07:13:30;77.37;;;57.40;;
3811;SDS011;1921;49.368;11.068;2023-07-08T07:15:57;76.47;;;57.37;;
3811;SDS011;1921;49.368;11.068;2023-07-08T07:18:23;77.30;;;56.77;;
3811;SDS011;1921;49.368;11.068;2023-07-08T07:20:49;76.87;;;56.70;;
3811;SDS011;1921;49.368;11.068;2023-07-08T07:23:18;81.10;;;57.40;;
3811;SDS011;1921;49.368;11.068;2023-07-08T07:25:45;79.83;;;55.37;;
3811;SDS011;1921;49.368;11.068;2023-07-08T07:28:15;75.60;;;56.90;;
3811;SDS011;1921;49.368;11.068;2023-07-08T07:30:42;75.10;;;56.60;;
3811;SDS011;1921;49.368;11.068;2023-07-08T07:33:09;76.63;;;57.30;;
3811;SDS011;1921;49.368;11.068;2023-07-08T07:35:35;78.87;;;56.10;;
3811;SDS011;1921;49.368;11.068;2023-07-08T07:38:07;75.87;;;57.30;;
3811;SDS011;1921;49.368;11.068;2023-07-08T07:40:33;74.93;;;56.90;;
3811;SDS011;1921;49.368;11.068;2023-07-08T07:42:59;75.90;;;56.80;;
3811;SDS011;1921;49.368;11.068;2023-07-08T07:45:25;79.93;;;56.87;;
3811;SDS011;1921;49.368;11.068;2023-07-08T07:47:51;77.33;;;57.40;;
3811;SDS011;1921;49.368;11.068;2023-07-08T07:50:17;75.40;;;56.47;;
3811;SDS011;1921;49.368;11.068;2023-07-08T07:52:43;79.50;;;56.57;;
3811;SDS011;1921;49.368;11.068;2023-07-08T07:55:10;75.93;;;56.50;;
3811;SDS011;1921;49.368;11.068;2023-07-08T07:57:44;77.67;;;57.20;;
3811;SDS011;1921;49.368;11.068;2023-07-08T08:00:13;76.05;;;55.97;;
3811;SDS011;1921;49.368;11.068;2023-07-08T08:02:39;78.85;;;57.17;;
3811;SDS011;1921;49.368;11.068;2023-07-08T08:05:08;75.68;;;56.90;;
3811;SDS011;1921;49.368;11.068;2023-07-08T08:07:34;76.25;;;56.80;;
3811;SDS011;1921;49.368;11.068;2023-07-08T08:10:01;75.65;;;56.45;;
3811;SDS011;1921;49.368;11.068;2023-07-08T08:12:28;76.70;;;56.78;;
3811;SDS011;1921;49.368;11.068;2023-07-08T08:14:54;81.88;;;56.92;;
3811;SDS011;1921;49.368;11.068;2023-07-08T08:17:20;75.85;;;56.95;;
3811;SDS011;1921;49.368;11.068;2023-07-08T08:19:46;75.00;;;56.53;;
3811;SDS011;1921;49.368;11.068;2023-07-08T08:22:11;77.35;;;57.00;;
3811;SDS011;1921;49.368;11.068;2023-07-08T08:24:37;75.70;;;57.13;;
3811;SDS011;1921;49.368;11.068;2023-07-08T08:27:03;80.88;;;57.53;;
3811;SDS011;1921;49.368;11.068;2023-07-08T08:29:29;76.50;;;57.65;;
3811;SDS011;1921;49.368;11.068;2023-07-08T08:31:55;75.70;;;56.50;;
3811;SDS011;1921;49.368;11.068;2023-07-08T08:34:21;86.18;;;57.20;;
3811;SDS011;1921;49.368;11.068;2023-07-08T08:36:46;80.38;;;56.55;;
3811;SDS011;1921;49.368;11.068;2023-07-08T08:39:12;75.43;;;56.10;;
3811;SDS011;1921;49.368;11.068;2023-07-08T08:41:38;75.00;;;56.85;;
3811;SDS011;1921;49.368;11.068;2023-07-08T08:44:09;74.93;;;56.33;;
3811;SDS011;1921;49.368;11.068;2023-07-08T08:50:01;75.93;;;56.92;;
3811;SDS011;1921;49.368;11.068;2023-07-08T08:52:45;75.45;;;56.35;;
3811;SDS011;1921;49.368;11.068;2023-07-08T08:55:12;75.30;;;56.60;;
3811;SDS011;1921;49.368;11.068;2023-07-08T08:57:45;88.43;;;57.67;;
3811;SDS011;1921;49.368;11.068;2023-07-08T09:00:35;74.43;;;56.00;;
3811;SDS011;1921;49.368;11.068;2023-07-08T09:06:29;74.38;;;56.35;;
3811;SDS011;1921;49.368;11.068;2023-07-08T09:09:03;76.43;;;56.78;;
3811;SDS011;1921;49.368;11.068;2023-07-08T09:14:32;76.15;;;57.28;;
3811;SDS011;1921;49.368;11.068;2023-07-08T09:22:54;76.95;;;57.45;;
3811;SDS011;1921;49.368;11.068;2023-07-08T09:25:35;78.93;;;57.60;;
3811;SDS011;1921;49.368;11.068;2023-07-08T09:28:13;76.75;;;57.45;;
3811;SDS011;1921;49.368;11.068;2023-07-08T09:30:39;80.55;;;57.28;;
3811;SDS011;1921;49.368;11.068;2023-07-08T09:33:06;73.63;;;56.33;;
3811;SDS011;1921;49.368;11.068;2023-07-08T09:35:38;77.50;;;56.42;;
3811;SDS011;1921;49.368;11.068;2023-07-08T09:38:16;74.30;;;56.50;;
3811;SDS011;1921;49.368;11.068;2023-07-08T09:40:47;74.45;;;56.28;;
3811;SDS011;1921;49.368;11.068;2023-07-08T09:43:28;74.80;;;56.67;;
3811;SDS011;1921;49.368;11.068;2023-07-08T09:46:01;75.82;;;56.90;;
3811;SDS011;1921;49.368;11.068;2023-07-08T09:48:28;76.88;;;57.40;;
3811;SDS011;1921;49.368;11.068;2023-07-08T09:51:03;77.18;;;57.67;;
3811;SDS011;1921;49.368;11.068;2023-07-08T09:53:29;78.25;;;56.88;;
3811;SDS011;1921;49.368;11.068;2023-07-08T09:55:59;73.60;;;55.55;;
3811;SDS011;1921;49.368;11.068;2023-07-08T09:58:29;74.15;;;56.83;;
3811;SDS011;1921;49.368;11.068;2023-07-08T10:01:09;74.78;;;57.03;;
3811;SDS011;1921;49.368;11.068;2023-07-08T10:03:48;76.05;;;57.47;;
3811;SDS011;1921;49.368;11.068;2023-07-08T10:06:16;76.68;;;57.45;;
3811;SDS011;1921;49.368;11.068;2023-07-08T10:08:47;77.07;;;57.75;;
3811;SDS011;1921;49.368;11.068;2023-07-08T10:14:07;76.28;;;57.45;;
3811;SDS011;1921;49.368;11.068;2023-07-08T10:16:50;79.15;;;58.38;;
3811;SDS011;1921;49.368;11.068;2023-07-08T10:19:17;73.53;;;55.90;;
3811;SDS011;1921;49.368;11.068;2023-07-08T10:22:07;76.72;;;57.00;;
3811;SDS011;1921;49.368;11.068;2023-07-08T10:28:32;77.45;;;57.88;;
3811;SDS011;1921;49.368;11.068;2023-07-08T10:31:27;77.43;;;58.33;;
3811;SDS011;1921;49.368;11.068;2023-07-08T10:34:03;78.50;;;58.58;;
3811;SDS011;1921;49.368;11.068;2023-07-08T10:45:15;77.47;;;58.00;;
3811;SDS011;1921;49.368;11.068;2023-07-08T10:48:02;78.03;;;58.53;;
3811;SDS011;1921;49.368;11.068;2023-07-08T10:53:56;77.07;;;57.90;;
3811;SDS011;1921;49.368;11.068;2023-07-08T10:57:40;77.55;;;57.88;;
3811;SDS011;1921;49.368;11.068;2023-07-08T11:06:17;79.00;;;57.22;;
3811;SDS011;1921;49.368;11.068;2023-07-08T11:08:49;86.70;;;58.75;;
3811;SDS011;1921;49.368;11.068;2023-07-08T11:22:51;77.40;;;58.17;;
3811;SDS011;1921;49.368;11.068;2023-07-08T11:25:23;79.60;;;57.67;;
3811;SDS011;1921;49.368;11.068;2023-07-08T11:27:56;77.80;;;57.78;;
3811;SDS011;1921;49.368;11.068;2023-07-08T11:30:35;76.53;;;57.75;;
3811;SDS011;1921;49.368;11.068;2023-07-08T11:33:06;77.75;;;58.10;;
3811;SDS011;1921;49.368;11.068;2023-07-08T11:35:39;84.75;;;59.13;;
3811;SDS011;1921;49.368;11.068;2023-07-08T11:38:14;76.75;;;57.67;;
3811;SDS011;1921;49.368;11.068;2023-07-08T11:40:56;78.22;;;58.45;;
3811;SDS011;1921;49.368;11.068;2023-07-08T11:43:26;75.97;;;57.80;;
3811;SDS011;1921;49.368;11.068;2023-07-08T11:46:03;77.15;;;58.03;;
3811;SDS011;1921;49.368;11.068;2023-07-08T11:48:38;76.13;;;57.63;;
3811;SDS011;1921;49.368;11.068;2023-07-08T11:51:11;76.50;;;57.97;;
3811;SDS011;1921;49.368;11.068;2023-07-08T11:53:50;80.50;;;58.70;;
3811;SDS011;1921;49.368;11.068;2023-07-08T11:56:27;76.75;;;57.72;;
3811;SDS011;1921;49.368;11.068;2023-07-08T11:59:12;78.63;;;57.55;;
3811;SDS011;1921;49.368;11.068;2023-07-08T12:04:24;77.82;;;57.85;;
3811;SDS011;1921;49.368;11.068;2023-07-08T12:07:17;73.10;;;55.28;;
3811;SDS011;1921;49.368;11.068;2023-07-08T12:12:31;82.10;;;57.95;;
3811;SDS011;1921;49.368;11.068;2023-07-08T12:15:12;77.78;;;57.10;;
3811;SDS011;1921;49.368;11.068;2023-07-08T12:17:58;76.32;;;57.70;;
3811;SDS011;1921;49.368;11.068;2023-07-08T12:20:59;74.85;;;56.30;;
3811;SDS011;1921;49.368;11.068;2023-07-08T12:23:26;75.45;;;56.70;;
3811;SDS011;1921;49.368;11.068;2023-07-08T12:25:53;77.65;;;57.60;;
3811;SDS011;1921;49.368;11.068;2023-07-08T12:28:21;78.65;;;58.53;;
3811;SDS011;1921;49.368;11.068;2023-07-08T12:30:49;77.07;;;58.13;;
3811;SDS011;1921;49.368;11.068;2023-07-08T12:33:25;80.43;;;59.22;;
3811;SDS011;1921;49.368;11.068;2023-07-08T12:35:56;78.80;;;58.67;;
3811;SDS011;1921;49.368;11.068;2023-07-08T12:40:53;79.28;;;57.95;;
3811;SDS011;1921;49.368;11.068;2023-07-08T12:43:22;76.50;;;58.38;;
3811;SDS011;1921;49.368;11.068;2023-07-08T12:45:48;78.28;;;58.55;;
3811;SDS011;1921;49.368;11.068;2023-07-08T12:48:13;78.85;;;58.97;;
3811;SDS011;1921;49.368;11.068;2023-07-08T12:50:39;77.03;;;58.50;;
3811;SDS011;1921;49.368;11.068;2023-07-08T12:53:05;78.95;;;58.70;;
3811;SDS011;1921;49.368;11.068;2023-07-08T12:55:35;79.43;;;58.78;;
3811;SDS011;1921;49.368;11.068;2023-07-08T12:58:08;78.15;;;58.75;;
3811;SDS011;1921;49.368;11.068;2023-07-08T13:00:39;78.10;;;58.50;;
3811;SDS011;1921;49.368;11.068;2023-07-08T13:05:39;80.07;;;59.05;;
3811;SDS011;1921;49.368;11.068;2023-07-08T13:08:07;76.25;;;58.15;;
3811;SDS011;1921;49.368;11.068;2023-07-08T13:10:40;77.35;;;57.80;;
3811;SDS011;1921;49.368;11.068;2023-07-08T13:13:11;79.63;;;59.00;;
3811;SDS011;1921;49.368;11.068;2023-07-08T13:15:42;77.53;;;58.63;;
3811;SDS011;1921;49.368;11.068;2023-07-08T13:18:13;79.70;;;57.85;;
3811;SDS011;1921;49.368;11.068;2023-07-08T13:20:50;76.68;;;58.28;;
3811;SDS011;1921;49.368;11.068;2023-07-08T13:23:19;84.28;;;58.00;;
3811;SDS011;1921;49.368;11.068;2023-07-08T13:25:47;75.60;;;57.30;;
3811;SDS011;1921;49.368;11.068;2023-07-08T13:28:23;77.57;;;58.33;;
3811;SDS011;1921;49.368;11.068;2023-07-08T13:30:55;78.10;;;58.15;;
3811;SDS011;1921;49.368;11.068;2023-07-08T13:33:31;81.65;;;57.85;;
3811;SDS011;1921;49.368;11.068;2023-07-08T13:36:03;78.55;;;58.08;;
3811;SDS011;1921;49.368;11.068;2023-07-08T13:38:40;78.68;;;58.60;;
3811;SDS011;1921;49.368;11.068;2023-07-08T13:41:07;78.10;;;58.90;;
3811;SDS011;1921;49.368;11.068;2023-07-08T13:43:35;79.45;;;59.45;;
3811;SDS011;1921;49.368;11.068;2023-07-08T13:46:28;81.40;;;59.58;;
3811;SDS011;1921;49.368;11.068;2023-07-08T13:49:15;80.80;;;59.10;;
3811;SDS011;1921;49.368;11.068;2023-07-08T13:54:43;81.28;;;59.00;;
3811;SDS011;1921;49.368;11.068;2023-07-08T13:57:28;80.38;;;59.90;;
3811;SDS011;1921;49.368;11.068;2023-07-08T14:00:05;79.97;;;59.58;;
3811;SDS011;1921;49.368;11.068;2023-07-08T14:02:34;78.25;;;59.38;;
3811;SDS011;1921;49.368;11.068;2023-07-08T14:05:01;83.57;;;59.47;;
3811;SDS011;1921;49.368;11.068;2023-07-08T14:07:30;78.32;;;59.25;;
3811;SDS011;1921;49.368;11.068;2023-07-08T14:09:58;78.53;;;59.25;;
3811;SDS011;1921;49.368;11.068;2023-07-08T14:12:23;78.55;;;59.25;;
3811;SDS011;1921;49.368;11.068;2023-07-08T14:14:49;79.55;;;59.97;;
3811;SDS011;1921;49.368;11.068;2023-07-08T14:17:19;80.38;;;59.05;;
3811;SDS011;1921;49.368;11.068;2023-07-08T14:19:49;80.97;;;59.47;;
3811;SDS011;1921;49.368;11.068;2023-07-08T14:22:25;79.85;;;59.70;;
3811;SDS011;1921;49.368;11.068;2023-07-08T14:24:55;81.57;;;59.42;;
3811;SDS011;1921;49.368;11.068;2023-07-08T14:27:25;83.35;;;59.60;;
3811;SDS011;1921;49.368;11.068;2023-07-08T14:29:51;78.10;;;59.10;;
3811;SDS011;1921;49.368;11.068;2023-07-08T14:32:22;78.13;;;58.72;;
3811;SDS011;1921;49.368;11.068;2023-07-08T14:34:59;77.82;;;59.35;;
3811;SDS011;1921;49.368;11.068;2023-07-08T14:37:37;79.72;;;59.67;;
3811;SDS011;1921;49.368;11.068;2023-07-08T14:40:11;78.82;;;59.70;;
3811;SDS011;1921;49.368;11.068;2023-07-08T14:42:51;78.53;;;59.20;;
3811;SDS011;1921;49.368;11.068;2023-07-08T14:45:29;78.10;;;58.88;;
3811;SDS011;1921;49.368;11.068;2023-07-08T14:48:10;79.40;;;59.20;;
3811;SDS011;1921;49.368;11.068;2023-07-08T14:50:37;79.18;;;58.72;;
3811;SDS011;1921;49.368;11.068;2023-07-08T14:53:03;79.75;;;59.45;;
3811;SDS011;1921;49.368;11.068;2023-07-08T14:55:29;78.97;;;59.53;;
3811;SDS011;1921;49.368;11.068;2023-07-08T14:57:55;76.90;;;58.95;;
3811;SDS011;1921;49.368;11.068;2023-07-08T15:00:22;81.60;;;59.20;;
3811;SDS011;1921;49.368;11.068;2023-07-08T15:02:48;77.57;;;59.35;;
3811;SDS011;1921;49.368;11.068;2023-07-08T15:05:20;77.57;;;59.53;;
3811;SDS011;1921;49.368;11.068;2023-07-08T15:07:52;81.93;;;59.78;;
3811;SDS011;1921;49.368;11.068;2023-07-08T15:10:20;78.05;;;58.72;;
3811;SDS011;1921;49.368;11.068;2023-07-08T15:12:50;79.72;;;59.00;;
3811;SDS011;1921;49.368;11.068;2023-07-08T15:15:17;81.70;;;59.53;;
3811;SDS011;1921;49.368;11.068;2023-07-08T15:17:51;81.53;;;59.15;;
3811;SDS011;1921;49.368;11.068;2023-07-08T15:20:17;87.72;;;59.65;;
3811;SDS011;1921;49.368;11.068;2023-07-08T15:22:44;79.20;;;59.03;;
3811;SDS011;1921;49.368;11.068;2023-07-08T15:25:10;76.00;;;57.85;;
3811;SDS011;1921;49.368;11.068;2023-07-08T15:27:39;77.22;;;58.65;;
3811;SDS011;1921;49.368;11.068;2023-07-08T15:30:16;76.40;;;57.63;;
3811;SDS011;1921;49.368;11.068;2023-07-08T15:32:48;79.05;;;57.28;;
3811;SDS011;1921;49.368;11.068;2023-07-08T15:35:15;79.20;;;57.60;;
3811;SDS011;1921;49.368;11.068;2023-07-08T15:37:50;77.43;;;57.92;;
3811;SDS011;1921;49.368;11.068;2023-07-08T15:40:17;78.50;;;58.03;;
3811;SDS011;1921;49.368;11.068;2023-07-08T15:42:48;78.68;;;58.35;;
3811;SDS011;1921;49.368;11.068;2023-07-08T15:45:22;80.35;;;58.05;;
3811;SDS011;1921;49.368;11.068;2023-07-08T15:47:51;76.10;;;57.60;;
3811;SDS011;1921;49.368;11.068;2023-07-08T15:50:21;77.45;;;58.03;;
3811;SDS011;1921;49.368;11.068;2023-07-08T15:52:50;78.22;;;57.97;;
3811;SDS011;1921;49.368;11.068;2023-07-08T15:55:21;76.45;;;57.85;;
3811;SDS011;1921;49.368;11.068;2023-07-08T15:57:59;78.53;;;58.10;;
3811;SDS011;1921;49.368;11.068;2023-07-08T16:00:34;86.32;;;59.33;;
3811;SDS011;1921;49.368;11.068;2023-07-08T16:03:05;81.63;;;58.75;;
3811;SDS011;1921;49.368;11.068;2023-07-08T16:05:36;80.90;;;58.90;;
3811;SDS011;1921;49.368;11.068;2023-07-08T16:08:02;79.05;;;58.50;;